createdAt,value
2022-10-23T00:00:03.718Z,20.40
2022-10-23T00:02:57.105Z,19.90
2022-10-23T00:05:30.311Z,20.10
2022-10-23T00:08:04.148Z,19.30
2022-10-23T00:10:37.019Z,18.50
2022-10-23T00:13:08.471Z,18.30
2022-10-23T00:15:39.949Z,18.80
2022-10-23T00:18:11.488Z,18.60
2022-10-23T00:20:42.968Z,19.00
2022-10-23T00:23:14.407Z,18.00
2022-10-23T00:25:45.801Z,19.40
2022-10-23T00:28:17.255Z,19.60
2022-10-23T00:30:48.619Z,18.80
2022-10-23T00:33:20.075Z,17.70
2022-10-23T00:35:51.546Z,17.80
2022-10-23T00:38:23.103Z,18.60
2022-10-23T00:40:54.771Z,17.40
2022-10-23T00:43:31.028Z,18.10
2022-10-23T00:46:02.576Z,16.40
2022-10-23T00:48:33.975Z,18.80
2022-10-23T00:51:05.568Z,16.70
2022-10-23T00:53:37.162Z,17.30
2022-10-23T00:56:09.570Z,18.10
2022-10-23T00:58:41.024Z,17.80
2022-10-23T01:01:20.790Z,17.60
2022-10-23T01:03:53.357Z,18.20
2022-10-23T01:06:38.286Z,16.90
2022-10-23T01:09:18.926Z,18.20
2022-10-23T01:11:59.243Z,18.30
2022-10-23T01:14:39.461Z,18.10
2022-10-23T01:17:26.196Z,18.70
2022-10-23T01:20:32.840Z,21.30
2022-10-23T01:23:37.376Z,20.60
2022-10-23T01:28:55.975Z,18.50
2022-10-23T01:31:38.474Z,18.80
2022-10-23T01:34:16.556Z,18.50
2022-10-23T01:36:53.493Z,18.00
2022-10-23T01:39:29.496Z,19.00
2022-10-23T01:42:09.672Z,18.70
2022-10-23T01:45:04.545Z,18.60
2022-10-23T01:47:40.860Z,17.80
2022-10-23T01:50:27.708Z,17.50
2022-10-23T01:53:05.771Z,19.80
2022-10-23T01:58:21.684Z,18.80
2022-10-23T02:00:53.989Z,18.60
2022-10-23T02:03:28.497Z,17.00
2022-10-23T02:06:01.575Z,18.10
2022-10-23T02:08:34.105Z,17.30
2022-10-23T02:11:11.450Z,19.40
2022-10-23T02:13:50.996Z,17.20
2022-10-23T02:16:37.761Z,17.10
2022-10-23T02:19:18.923Z,17.20
2022-10-23T02:22:28.947Z,17.50
2022-10-23T02:24:58.145Z,16.30
2022-10-23T02:27:36.757Z,16.60
2022-10-23T02:30:13.694Z,17.00
2022-10-23T02:33:12.149Z,16.60
2022-10-23T02:35:43.875Z,16.80
2022-10-23T02:38:34.365Z,16.30
2022-10-23T02:41:41.412Z,15.90
2022-10-23T02:44:38.356Z,17.80
2022-10-23T02:47:22.439Z,18.10
2022-10-23T02:52:39.692Z,18.30
2022-10-23T02:55:19.090Z,17.30
2022-10-23T02:58:00.092Z,18.30
2022-10-23T03:00:33.647Z,19.20
2022-10-23T03:03:11.738Z,19.70
2022-10-23T03:05:44.965Z,18.50
2022-10-23T03:08:17.207Z,19.30
2022-10-23T03:11:11.608Z,19.00
2022-10-23T03:13:45.254Z,19.50
2022-10-23T03:16:33.951Z,21.40
2022-10-23T03:21:50.871Z,19.60
2022-10-23T03:24:22.528Z,20.30
2022-10-23T03:26:54.187Z,20.80
2022-10-23T03:29:25.627Z,21.00
2022-10-23T03:31:57.084Z,20.40
2022-10-23T03:34:28.661Z,20.10
2022-10-23T03:37:00.183Z,19.80
2022-10-23T03:39:55.162Z,20.10
2022-10-23T03:42:26.867Z,21.60
2022-10-23T03:45:01.162Z,23.50
2022-10-23T03:47:36.016Z,22.60
2022-10-23T03:50:31.159Z,21.60
2022-10-23T03:53:02.705Z,21.70
2022-10-23T03:55:58.456Z,20.30
2022-10-23T03:58:43.923Z,21.70
2022-10-23T04:01:15.479Z,20.20
2022-10-23T04:03:48.201Z,20.60
2022-10-23T04:06:19.717Z,20.40
2022-10-23T04:08:51.199Z,20.60
2022-10-23T04:11:22.593Z,20.60
2022-10-23T04:13:54.112Z,20.90
2022-10-23T04:16:26.043Z,21.20
2022-10-23T04:18:59.879Z,21.00
2022-10-23T04:21:32.887Z,19.90
2022-10-23T04:24:04.665Z,19.00
2022-10-23T04:26:38.978Z,20.10
2022-10-23T04:29:13.253Z,18.90
2022-10-23T04:31:44.655Z,19.40
2022-10-23T04:34:16.225Z,18.90
2022-10-23T04:36:50.611Z,19.30
2022-10-23T04:39:22.169Z,20.10
2022-10-23T04:42:14.178Z,19.90
2022-10-23T04:44:45.773Z,19.10
2022-10-23T04:47:17.170Z,18.80
2022-10-23T04:49:48.576Z,17.90
2022-10-23T04:52:20.334Z,19.10
2022-10-23T04:54:52.096Z,18.60
2022-10-23T04:57:26.315Z,19.10
2022-10-23T04:59:57.778Z,18.50
2022-10-23T05:02:29.233Z,18.90
2022-10-23T05:05:00.742Z,19.60
2022-10-23T05:07:32.296Z,18.80
2022-10-23T05:10:04.083Z,19.10
2022-10-23T05:12:36.061Z,19.00
2022-10-23T05:15:11.251Z,17.80
2022-10-23T05:17:45.576Z,17.90
2022-10-23T05:20:27.089Z,18.90
2022-10-23T05:23:01.553Z,18.90
2022-10-23T05:25:40.671Z,18.00
2022-10-23T05:28:33.099Z,19.20
2022-10-23T05:31:09.715Z,19.10
2022-10-23T05:33:41.348Z,19.30
2022-10-23T05:36:15.492Z,18.90
2022-10-23T05:38:49.224Z,20.70
2022-10-23T05:41:48.802Z,19.30
2022-10-23T05:44:20.668Z,19.30
2022-10-23T05:47:12.369Z,19.00
2022-10-23T05:49:43.840Z,20.20
2022-10-23T05:52:19.991Z,19.60
2022-10-23T05:54:53.425Z,20.90
2022-10-23T05:57:24.949Z,20.30
2022-10-23T05:59:56.488Z,24.50
2022-10-23T06:02:29.840Z,25.80
2022-10-23T06:05:22.476Z,25.80
2022-10-23T06:07:53.904Z,25.80
2022-10-23T06:10:28.924Z,25.00
2022-10-23T06:13:00.493Z,24.20
2022-10-23T06:15:32.084Z,26.00
2022-10-23T06:18:28.283Z,24.10
2022-10-23T06:21:00.991Z,22.90
2022-10-23T06:23:35.375Z,23.10
2022-10-23T06:26:09.183Z,24.10
2022-10-23T06:28:41.836Z,22.60
2022-10-23T06:31:15.551Z,23.40
2022-10-23T06:36:19.032Z,23.70
2022-10-23T06:38:52.168Z,20.90
2022-10-23T06:41:24.507Z,22.20
2022-10-23T06:43:55.923Z,22.00
2022-10-23T06:46:29.888Z,21.30
2022-10-23T06:49:01.419Z,19.30
2022-10-23T06:51:32.855Z,19.60
2022-10-23T06:54:04.283Z,20.50
2022-10-23T06:56:35.719Z,19.90
2022-10-23T06:59:08.602Z,20.10
2022-10-23T07:01:40.261Z,18.40
2022-10-23T07:04:14.223Z,15.90
2022-10-23T07:06:45.680Z,16.70
2022-10-23T07:09:17.201Z,16.40
2022-10-23T07:11:48.747Z,15.90
2022-10-23T07:14:20.415Z,16.30
2022-10-23T07:16:52.177Z,16.30
2022-10-23T07:19:23.803Z,17.00
2022-10-23T07:21:55.444Z,17.10
2022-10-23T07:24:28.528Z,16.50
2022-10-23T07:27:00.404Z,16.90
2022-10-23T07:29:32.385Z,17.70
2022-10-23T07:32:04.792Z,20.60
2022-10-23T07:34:36.901Z,18.50
2022-10-23T07:37:08.698Z,17.30
2022-10-23T07:39:40.481Z,17.00
2022-10-23T07:42:12.855Z,17.40
2022-10-23T07:44:44.815Z,17.30
2022-10-23T07:47:16.471Z,18.10
2022-10-23T07:49:51.522Z,17.60
2022-10-23T07:52:23.185Z,17.50
2022-10-23T07:54:55.230Z,17.40
2022-10-23T07:57:26.983Z,14.10
2022-10-23T07:59:58.700Z,16.20
2022-10-23T08:02:30.477Z,14.60
2022-10-23T08:05:02.178Z,15.00
2022-10-23T08:07:33.877Z,14.90
2022-10-23T08:10:06.813Z,14.00
2022-10-23T08:12:39.972Z,15.10
2022-10-23T08:15:12.778Z,15.50
2022-10-23T08:17:44.644Z,15.80
2022-10-23T08:20:16.839Z,14.30
2022-10-23T08:22:48.716Z,14.10
2022-10-23T08:25:25.000Z,13.30
2022-10-23T08:27:57.691Z,13.90
2022-10-23T08:30:29.545Z,14.00
2022-10-23T08:33:01.175Z,15.00
2022-10-23T08:35:38.207Z,14.70
2022-10-23T08:38:11.309Z,15.50
2022-10-23T08:40:47.453Z,15.70
2022-10-23T08:43:29.608Z,15.90
2022-10-23T08:46:08.609Z,15.40
2022-10-23T08:48:49.507Z,16.30
2022-10-23T08:51:28.379Z,18.00
2022-10-23T08:54:07.480Z,16.10
2022-10-23T08:56:42.619Z,17.30
2022-10-23T08:59:23.123Z,16.30
2022-10-23T09:01:59.660Z,16.90
2022-10-23T09:04:31.879Z,18.60
2022-10-23T09:07:16.085Z,16.20
2022-10-23T09:10:04.359Z,16.10
2022-10-23T09:12:36.023Z,16.30
2022-10-23T09:15:31.801Z,15.00
2022-10-23T09:18:16.421Z,15.00
2022-10-23T09:20:52.390Z,15.50
2022-10-23T09:23:26.156Z,15.50
2022-10-23T09:25:58.930Z,14.00
2022-10-23T09:28:33.452Z,15.70
2022-10-23T09:31:11.838Z,17.60
2022-10-23T09:33:54.275Z,17.40
2022-10-23T09:36:30.047Z,16.10
2022-10-23T09:39:02.540Z,13.40
2022-10-23T09:41:38.469Z,13.50
2022-10-23T09:44:21.999Z,12.80
2022-10-23T09:46:56.818Z,13.10
2022-10-23T09:49:30.396Z,14.20
2022-10-23T09:57:29.996Z,11.70
2022-10-23T10:00:05.465Z,11.20
2022-10-23T10:02:38.936Z,13.10
2022-10-23T10:05:27.567Z,12.00
2022-10-23T10:08:06.002Z,12.10
2022-10-23T10:10:43.598Z,12.00
2022-10-23T10:13:42.697Z,11.40
2022-10-23T10:16:21.932Z,11.10
2022-10-23T10:19:03.507Z,11.10
2022-10-23T10:21:44.217Z,11.40
2022-10-23T10:24:21.529Z,11.60
2022-10-23T10:27:01.217Z,10.70
2022-10-23T10:29:47.937Z,10.40
2022-10-23T10:32:32.890Z,10.70
2022-10-23T10:35:20.631Z,10.00
2022-10-23T10:38:07.077Z,10.00
2022-10-23T10:40:43.382Z,10.20
2022-10-23T10:43:25.292Z,9.70
2022-10-23T10:46:02.581Z,8.30
2022-10-23T10:48:44.382Z,8.90
2022-10-23T10:51:23.377Z,8.60
2022-10-23T10:54:11.541Z,9.10
2022-10-23T10:56:46.583Z,7.90
2022-10-23T10:59:22.190Z,7.80
2022-10-23T11:01:59.874Z,7.80
2022-10-23T11:04:38.315Z,7.00
2022-10-23T11:07:15.668Z,7.30
2022-10-23T11:09:47.474Z,6.90
2022-10-23T11:12:22.850Z,6.70
2022-10-23T11:14:54.811Z,6.20
2022-10-23T11:17:32.387Z,6.20
2022-10-23T11:20:12.451Z,5.90
2022-10-23T11:22:53.912Z,5.70
2022-10-23T11:25:50.066Z,5.80
2022-10-23T11:28:38.019Z,5.50
2022-10-23T11:31:20.359Z,5.10
2022-10-23T11:34:33.470Z,5.00
2022-10-23T11:37:06.971Z,4.80
2022-10-23T11:39:40.677Z,4.50
2022-10-23T11:42:32.150Z,5.00
2022-10-23T11:45:03.986Z,5.00
2022-10-23T11:47:40.300Z,4.50
2022-10-23T11:50:31.133Z,5.10
2022-10-23T11:53:14.610Z,5.30
2022-10-23T11:56:02.658Z,5.00
2022-10-23T11:58:47.602Z,4.90
2022-10-23T12:01:44.178Z,4.70
2022-10-23T12:04:26.658Z,5.10
2022-10-23T12:07:01.405Z,5.00
2022-10-23T12:09:40.892Z,5.00
2022-10-23T12:12:29.407Z,5.30
2022-10-23T12:15:20.975Z,4.50
2022-10-23T12:17:55.321Z,5.10
2022-10-23T12:20:37.901Z,4.90
2022-10-23T12:23:43.293Z,6.00
2022-10-23T12:26:40.031Z,5.20
2022-10-23T12:32:01.905Z,4.60
2022-10-23T12:37:27.712Z,5.00
2022-10-23T12:40:02.070Z,5.40
2022-10-23T12:42:33.816Z,5.00
2022-10-23T12:45:23.887Z,5.50
2022-10-23T12:47:56.041Z,5.60
2022-10-23T12:50:30.207Z,5.50
2022-10-23T12:53:06.826Z,4.80
2022-10-23T12:55:52.672Z,5.80
2022-10-23T12:58:26.463Z,6.00
2022-10-23T13:01:00.189Z,5.90
2022-10-23T13:03:34.975Z,5.10
2022-10-23T13:06:12.380Z,4.90
2022-10-23T13:08:48.039Z,5.10
2022-10-23T13:11:23.066Z,5.40
2022-10-23T13:13:55.426Z,5.40
2022-10-23T13:16:28.293Z,5.40
2022-10-23T13:19:00.286Z,5.80
2022-10-23T13:21:33.697Z,5.40
2022-10-23T13:24:05.913Z,5.10
2022-10-23T13:26:45.099Z,6.40
2022-10-23T13:29:23.189Z,5.60
2022-10-23T13:31:55.243Z,6.00
2022-10-23T13:34:29.536Z,5.80
2022-10-23T13:37:04.933Z,7.20
2022-10-23T13:39:36.967Z,6.80
2022-10-23T13:42:16.328Z,6.20
2022-10-23T13:44:48.216Z,6.30
2022-10-23T13:47:20.450Z,6.10
2022-10-23T13:49:52.133Z,6.20
2022-10-23T13:52:26.696Z,5.90
2022-10-23T13:54:58.392Z,6.00
2022-10-23T13:57:30.129Z,6.80
2022-10-23T14:00:01.797Z,7.10
2022-10-23T14:02:34.295Z,7.00
2022-10-23T14:05:06.583Z,7.10
2022-10-23T14:07:38.411Z,7.00
2022-10-23T14:10:11.216Z,5.10
2022-10-23T14:12:44.981Z,5.10
2022-10-23T14:15:17.125Z,4.20
2022-10-23T14:17:48.927Z,4.70
2022-10-23T14:20:24.329Z,4.00
2022-10-23T14:22:58.076Z,4.30
2022-10-23T14:25:29.739Z,4.50
2022-10-23T14:28:01.497Z,4.30
2022-10-23T14:30:33.488Z,4.80
2022-10-23T14:33:05.509Z,4.80
2022-10-23T14:35:40.044Z,4.10
2022-10-23T14:38:11.732Z,6.50
2022-10-23T14:40:43.503Z,4.30
2022-10-23T14:43:15.229Z,4.50
2022-10-23T14:45:46.960Z,4.60
2022-10-23T14:48:18.660Z,4.30
2022-10-23T14:50:51.534Z,4.30
2022-10-23T14:53:23.214Z,4.10
2022-10-23T14:55:54.952Z,4.10
2022-10-23T14:58:26.890Z,4.40
2022-10-23T15:01:02.123Z,4.90
2022-10-23T15:03:34.219Z,5.00
2022-10-23T15:06:07.488Z,4.60
2022-10-23T15:08:40.194Z,4.60
2022-10-23T15:11:12.800Z,5.30
2022-10-23T15:16:16.283Z,4.80
2022-10-23T15:18:47.991Z,4.80
2022-10-23T15:21:19.728Z,5.10
2022-10-23T15:23:53.278Z,5.20
2022-10-23T15:26:25.597Z,5.30
2022-10-23T15:28:59.311Z,5.90
2022-10-23T15:34:20.432Z,5.80
2022-10-23T15:36:53.195Z,5.50
2022-10-23T15:39:28.246Z,6.20
2022-10-23T15:41:59.974Z,6.10
2022-10-23T15:44:34.152Z,5.70
2022-10-23T15:47:06.061Z,5.90
2022-10-23T15:49:38.129Z,6.70
2022-10-23T15:54:47.601Z,6.60
2022-10-23T15:57:19.336Z,6.20
2022-10-23T15:59:51.237Z,6.30
2022-10-23T16:02:23.532Z,7.00
2022-10-23T16:04:55.277Z,6.30
2022-10-23T16:07:27.168Z,6.50
2022-10-23T16:09:58.940Z,7.60
2022-10-23T16:12:30.639Z,7.30
2022-10-23T16:15:02.415Z,7.00
2022-10-23T16:17:34.079Z,7.50
2022-10-23T16:20:07.557Z,7.50
2022-10-23T16:22:42.671Z,7.90
2022-10-23T16:25:16.907Z,7.90
2022-10-23T16:27:49.177Z,8.60
2022-10-23T16:30:23.077Z,12.20
2022-10-23T16:32:55.463Z,12.50
2022-10-23T16:35:27.540Z,15.60
2022-10-23T16:37:59.328Z,17.20
2022-10-23T16:40:30.939Z,18.20
2022-10-23T16:43:02.676Z,16.40
2022-10-23T16:45:37.061Z,18.50
2022-10-23T16:48:09.820Z,16.30
2022-10-23T16:50:42.942Z,16.10
2022-10-23T16:53:14.579Z,16.30
2022-10-23T16:55:46.375Z,16.80
2022-10-23T16:58:18.041Z,17.10
2022-10-23T17:00:58.614Z,17.30
2022-10-23T17:03:30.810Z,15.80
2022-10-23T17:06:08.880Z,16.60
2022-10-23T17:08:43.903Z,17.70
2022-10-23T17:11:17.941Z,20.30
2022-10-23T17:13:55.167Z,21.30
2022-10-23T17:16:35.041Z,24.40
2022-10-23T17:19:20.914Z,28.20
2022-10-23T17:22:02.318Z,32.90
2022-10-23T17:24:34.150Z,32.10
2022-10-23T17:27:06.207Z,27.30
2022-10-23T17:29:38.003Z,25.60
2022-10-23T17:32:09.856Z,26.50
2022-10-23T17:34:41.443Z,24.60
2022-10-23T17:37:14.477Z,24.30
2022-10-23T17:39:46.044Z,29.80
2022-10-23T17:42:17.509Z,27.60
2022-10-23T17:44:48.922Z,28.50
2022-10-23T17:47:20.355Z,27.50
2022-10-23T17:49:51.742Z,27.70
2022-10-23T17:52:23.183Z,29.80
2022-10-23T17:54:55.365Z,28.90
2022-10-23T17:57:26.843Z,27.00
2022-10-23T17:59:58.358Z,24.40
2022-10-23T18:02:29.880Z,25.00
2022-10-23T18:05:02.130Z,23.30
2022-10-23T18:07:33.651Z,22.90
2022-10-23T18:10:05.590Z,24.90
2022-10-23T18:12:36.989Z,23.00
2022-10-23T18:15:10.712Z,22.70
2022-10-23T18:17:42.502Z,23.10
2022-10-23T18:20:15.698Z,24.60
2022-10-23T18:22:47.255Z,25.10
2022-10-23T18:25:18.774Z,24.20
2022-10-23T18:27:50.239Z,24.70
2022-10-23T18:30:21.838Z,23.20
2022-10-23T18:32:53.255Z,23.80
2022-10-23T18:35:24.718Z,22.70
2022-10-23T18:37:56.210Z,23.00
2022-10-23T18:40:28.087Z,24.60
2022-10-23T18:42:59.856Z,24.50
2022-10-23T18:45:32.096Z,23.20
2022-10-23T18:48:04.783Z,23.80
2022-10-23T18:50:40.040Z,23.40
2022-10-23T18:53:11.573Z,23.20
2022-10-23T18:55:50.322Z,23.60
2022-10-23T18:58:21.782Z,24.10
2022-10-23T19:00:53.238Z,24.90
2022-10-23T19:03:24.645Z,23.80
2022-10-23T19:05:56.027Z,25.50
2022-10-23T19:08:27.635Z,24.40
2022-10-23T19:11:00.406Z,24.80
2022-10-23T19:13:35.296Z,27.40
2022-10-23T19:16:13.916Z,26.30
2022-10-23T19:18:50.087Z,27.60
2022-10-23T19:21:31.000Z,27.00
2022-10-23T19:24:04.727Z,29.00
2022-10-23T19:29:09.199Z,28.40
2022-10-23T19:31:45.156Z,28.60
2022-10-23T19:34:20.273Z,30.50
2022-10-23T19:36:53.537Z,28.30
2022-10-23T19:39:26.010Z,30.20
2022-10-23T19:41:58.563Z,30.50
2022-10-23T19:44:30.221Z,29.30
2022-10-23T19:47:02.955Z,29.70
2022-10-23T19:49:34.441Z,32.50
2022-10-23T19:52:06.395Z,31.60
2022-10-23T19:54:41.228Z,31.70
2022-10-23T19:57:12.911Z,32.70
2022-10-23T19:59:44.504Z,33.60
2022-10-23T20:02:16.131Z,33.70
2022-10-23T20:04:47.889Z,33.10
2022-10-23T20:07:19.435Z,32.90
2022-10-23T20:09:51.888Z,32.80
2022-10-23T20:12:23.463Z,33.60
2022-10-23T20:14:55.024Z,34.90
2022-10-23T20:17:27.918Z,32.50
2022-10-23T20:19:59.367Z,32.00
2022-10-23T20:22:30.840Z,31.80
2022-10-23T20:25:02.379Z,31.50
2022-10-23T20:27:33.933Z,34.70
2022-10-23T20:30:06.289Z,32.20
2022-10-23T20:32:37.760Z,33.20
2022-10-23T20:35:11.482Z,32.30
2022-10-23T20:40:14.295Z,32.70
2022-10-23T20:42:45.718Z,33.30
2022-10-23T20:45:17.156Z,34.70
2022-10-23T20:47:48.972Z,36.70
2022-10-23T20:50:20.992Z,38.00
2022-10-23T20:52:52.830Z,40.10
2022-10-23T20:55:24.292Z,37.40
2022-10-23T20:57:55.931Z,36.40
2022-10-23T21:00:27.444Z,35.10
2022-10-23T21:03:01.558Z,40.00
2022-10-23T21:05:35.140Z,40.30
2022-10-23T21:08:06.864Z,37.20
2022-10-23T21:10:45.276Z,37.80
2022-10-23T21:13:16.673Z,36.70
2022-10-23T21:15:48.207Z,39.00
2022-10-23T21:18:27.367Z,37.80
2022-10-23T21:21:11.401Z,36.50
2022-10-23T21:23:42.914Z,39.30
2022-10-23T21:26:15.388Z,41.90
2022-10-23T21:28:56.137Z,39.80
2022-10-23T21:31:32.842Z,37.80
2022-10-23T21:34:06.720Z,37.60
2022-10-23T21:36:48.591Z,36.30
2022-10-23T21:39:29.835Z,40.30
2022-10-23T21:42:12.148Z,39.50
2022-10-23T21:44:43.738Z,37.60
2022-10-23T21:47:15.232Z,39.40
2022-10-23T21:49:47.056Z,41.10
2022-10-23T21:52:19.812Z,40.00
2022-10-23T21:54:55.607Z,41.50
2022-10-23T21:57:31.113Z,39.90
2022-10-23T22:00:05.283Z,37.70
2022-10-23T22:02:36.858Z,40.60
2022-10-23T22:05:08.899Z,40.40
2022-10-23T22:07:40.374Z,36.90
2022-10-23T22:10:12.751Z,36.80
2022-10-23T22:12:44.497Z,37.70
2022-10-23T22:15:15.955Z,38.40
2022-10-23T22:17:47.651Z,43.30
2022-10-23T22:20:19.304Z,41.80
2022-10-23T22:22:50.705Z,43.70
2022-10-23T22:25:22.371Z,42.50
2022-10-23T22:27:53.924Z,42.80
2022-10-23T22:30:27.380Z,42.10
2022-10-23T22:32:58.967Z,44.30
2022-10-23T22:35:30.830Z,42.30
2022-10-23T22:38:02.225Z,42.30
2022-10-23T22:40:37.335Z,41.30
2022-10-23T22:43:08.789Z,42.90
2022-10-23T22:45:40.158Z,39.50
2022-10-23T22:48:11.613Z,38.80
2022-10-23T22:50:43.021Z,39.40
2022-10-23T22:53:14.480Z,38.30
2022-10-23T22:55:46.039Z,43.50
2022-10-23T22:58:17.528Z,41.80
2022-10-23T23:00:49.390Z,42.30
2022-10-23T23:03:20.937Z,40.50
2022-10-23T23:05:52.587Z,41.40
2022-10-23T23:08:24.036Z,41.30
2022-10-23T23:10:59.268Z,43.60
2022-10-23T23:13:31.125Z,43.30
2022-10-23T23:16:02.788Z,40.80
2022-10-23T23:18:36.070Z,41.70
2022-10-23T23:21:07.888Z,41.60
2022-10-23T23:23:39.371Z,39.50
2022-10-23T23:26:11.542Z,40.10
2022-10-23T23:28:43.496Z,38.50
2022-10-23T23:31:18.353Z,42.20
2022-10-23T23:33:50.254Z,42.20
2022-10-23T23:36:25.227Z,41.50
2022-10-23T23:38:58.435Z,42.60
2022-10-23T23:41:30.814Z,42.40
2022-10-23T23:44:02.358Z,43.50
2022-10-23T23:46:33.988Z,42.50
2022-10-23T23:49:05.576Z,42.30
2022-10-23T23:51:37.317Z,42.10
2022-10-23T23:54:08.694Z,42.80
2022-10-23T23:56:40.240Z,41.40
2022-10-23T23:59:11.684Z,41.10
